地図

経路データ

SID SEASON NUMBER BASIN SUBBASIN NAME ISO_TIME NATURE LAT LON WMO_WIND WMO_PRES WMO_AGENCY TRACK_TYPE DIST2LAND LANDFALL IFLAG USA_AGENCY USA_ATCF_ID USA_LAT USA_LON USA_RECORD USA_STATUS USA_WIND USA_PRES USA_SSHS USA_R34_NE USA_R34_SE USA_R34_SW USA_R34_NW USA_R50_NE USA_R50_SE USA_R50_SW USA_R50_NW USA_R64_NE USA_R64_SE USA_R64_SW USA_R64_NW USA_POCI USA_ROCI USA_RMW USA_EYE TOKYO_LAT TOKYO_LON TOKYO_GRADE TOKYO_WIND TOKYO_PRES TOKYO_R50_DIR TOKYO_R50_LONG TOKYO_R50_SHORT TOKYO_R30_DIR TOKYO_R30_LONG TOKYO_R30_SHORT TOKYO_LAND CMA_LAT CMA_LON CMA_CAT CMA_WIND CMA_PRES HKO_LAT HKO_LON HKO_CAT HKO_WIND HKO_PRES NEWDELHI_LAT NEWDELHI_LON NEWDELHI_GRADE NEWDELHI_WIND NEWDELHI_PRES NEWDELHI_CI NEWDELHI_DP NEWDELHI_POCI REUNION_LAT REUNION_LON REUNION_TYPE REUNION_WIND REUNION_PRES REUNION_TNUM REUNION_CI REUNION_RMW REUNION_R34_NE REUNION_R34_SE REUNION_R34_SW REUNION_R34_NW REUNION_R50_NE REUNION_R50_SE REUNION_R50_SW REUNION_R50_NW REUNION_R64_NE REUNION_R64_SE REUNION_R64_SW REUNION_R64_NW BOM_LAT BOM_LON BOM_TYPE BOM_WIND BOM_PRES BOM_TNUM BOM_CI BOM_RMW BOM_R34_NE BOM_R34_SE BOM_R34_SW BOM_R34_NW BOM_R50_NE BOM_R50_SE BOM_R50_SW BOM_R50_NW BOM_R64_NE BOM_R64_SE BOM_R64_SW BOM_R64_NW BOM_ROCI BOM_POCI BOM_EYE BOM_POS_METHOD BOM_PRES_METHOD NADI_LAT NADI_LON NADI_CAT NADI_WIND NADI_PRES WELLINGTON_LAT WELLINGTON_LON WELLINGTON_WIND WELLINGTON_PRES DS824_LAT DS824_LON DS824_STAGE DS824_WIND DS824_PRES TD9636_LAT TD9636_LON TD9636_STAGE TD9636_WIND TD9636_PRES TD9635_LAT TD9635_LON TD9635_WIND TD9635_PRES TD9635_ROCI NEUMANN_LAT NEUMANN_LON NEUMANN_CLASS NEUMANN_WIND NEUMANN_PRES MLC_LAT MLC_LON MLC_CLASS MLC_WIND MLC_PRES USA_GUST BOM_GUST BOM_GUST_PER REUNION_GUST REUNION_GUST_PER USA_SEAHGT USA_SEARAD_NE USA_SEARAD_SE USA_SEARAD_SW USA_SEARAD_NW STORM_SPEED STORM_DIR
1977041S10076 1977 20 SI MM HERVEA 1977-02-10 06:00:00 TS -10.0000 76.0000 main 1853 1853 O________OO_O_ jtwc_sh SH171977 -10.0000 76.0000 -1 -10.0000 76.0000 TC 25 -10.0000 76.0000 1 -10.0000 76.0000 TC 25 10 270
1977041S10076 1977 20 SI MM HERVEA 1977-02-10 09:00:00 TS -9.99974 75.5098 main 1869 1869 P________PP_P_ SH171977 -10.0002 75.4500 -1 -10.0002 75.4500 TC 25 -9.99876 75.4717 1 -9.99985 75.6675 TC 25 10 270
1977041S10076 1977 20 SI MM HERVEA 1977-02-10 12:00:00 TS -9.99943 74.9837 main 1886 1886 O________OP_O_ jtwc_sh SH171977 -10.0000 74.9000 -1 -10.0000 74.9000 TC 25 -9.99772 74.9348 1 -10.0000 75.2000 TC 25 11 270
1977041S10076 1977 20 SI MM HERVEA 1977-02-10 15:00:00 TS -9.99947 74.4007 main 1908 1908 P________PP_P_ SH171977 -9.99991 74.3500 -1 -9.99991 74.3500 TC 25 -9.99783 74.3805 1 -10.0002 74.5225 TC 25 12 270
1977041S10076 1977 20 SI MM HERVEA 1977-02-10 18:00:00 TS -10.0000 73.8000 main 1932 1932 O________OO_O_ jtwc_sh SH171977 -10.0000 73.8000 -1 -10.0000 73.8000 TC 25 -10.0000 73.8000 1 -10.0000 73.8000 TC 25 12 270
1977041S10076 1977 20 SI MM HERVEA 1977-02-10 21:00:00 TS -10.0010 73.2302 main 1958 1958 P________PP_P_ SH171977 -9.99991 73.2500 -1 -9.99991 73.2500 TC 25 -10.0043 73.1933 1 -9.99979 73.2275 TC 25 11 270
1977041S10076 1977 20 SI MM HERVEA 1977-02-11 00:00:00 TS -10.0020 72.6738 main 1966 1913 O________OP_O_ jtwc_sh SH171977 -10.0000 72.7000 -1 -10.0000 72.7000 TC 25 -10.0079 72.5951 1 -10.0000 72.7000 TC 25 11 270
1977041S10076 1977 20 SI MM HERVEA 1977-02-11 03:00:00 TS -10.0019 72.0930 main 1913 1870 P________PP_P_ SH171977 -10.0001 72.1125 -1 -10.0001 72.1125 TC 25 -10.0075 72.0495 1 -10.0001 72.0975 TC 25 11 270
1977041S10076 1977 20 SI MM HERVEA 1977-02-11 06:00:00 TS -10.0000 71.6000 main 1870 1845 O________OO_O_ jtwc_sh SH171977 -10.0000 71.6000 -1 -10.0000 71.6000 TC 25 -10.0000 71.6000 1 -10.0000 71.6000 TC 25 8 270
1977041S10076 1977 20 SI MM HERVEA 1977-02-11 09:00:00 TS -9.99993 71.2770 main 1845 1828 P________PP_P_ SH171977 -10.0074 71.2325 -1 -10.0074 71.2325 TC 25 -9.97758 71.2953 1 -10.0073 71.3475 TC 25 5 271
1977041S10076 1977 20 SI MM HERVEA 1977-02-11 12:00:00 TS -9.98734 71.0719 main 1828 1811 O________OP_O_ jtwc_sh SH171977 -10.0000 71.0000 -1 -10.0000 71.0000 TC 25 -9.94937 71.0875 1 -10.0000 71.2000 TC 25 4 279
1977041S10076 1977 20 SI MM HERVEA 1977-02-11 15:00:00 TS -9.94285 70.9209 main 1818 1810 P________PP_P_ SH171977 -9.94994 70.8775 -1 -9.94994 70.8775 TC 25 -9.92150 70.9360 1 -9.95000 70.9925 TC 25 3 288
1977041S10076 1977 20 SI MM HERVEA 1977-02-11 18:00:00 TS -9.90000 70.8000 main 1810 1802 O________OO_O_ jtwc_sh SH171977 -9.90000 70.8000 -1 -9.90000 70.8000 TC 25 -9.90000 70.8000 1 -9.90000 70.8000 TC 25 3 281
1977041S10076 1977 20 SI MM HERVEA 1977-02-11 21:00:00 TS -9.89355 70.6535 main 1802 1785 P________PP_P_ SH171977 -9.89249 70.6650 -1 -9.89249 70.6650 TC 25 -9.89676 70.6341 1 -9.89247 70.6500 TC 25 3 270
1977041S10076 1977 20 SI MM HERVEA 1977-02-12 00:00:00 TS -9.89996 70.4931 main 1785 1769 O________OP_O_ jtwc_sh SH171977 -9.90000 70.5000 -1 -9.90000 70.5000 TC 25 -9.89983 70.4726 1 -9.90000 70.5000 TC 25 3 269
1977041S10076 1977 20 SI MM HERVEA 1977-02-12 03:00:00 TS -9.90073 70.3131 main 1769 1752 P________PP_P_ SH171977 -9.89999 70.3150 -1 -9.89999 70.3150 TC 25 -9.90299 70.2997 1 -9.89997 70.3225 TC 25 4 270
1977041S10076 1977 20 SI MM HERVEA 1977-02-12 06:00:00 TS -9.90000 70.1000 main 1752 1736 O________OO_O_ jtwc_sh SH171977 -9.90000 70.1000 -1 -9.90000 70.1000 TC 25 -9.90000 70.1000 1 -9.90000 70.1000 TC 25 5 270
1977041S10076 1977 20 SI MM HERVEA 1977-02-12 09:00:00 TS -9.89712 69.8468 main 1728 1712 P________PP_P_ SH171977 -9.90748 69.8650 -1 -9.90748 69.8650 TC 25 -9.86599 69.8496 1 -9.90753 69.8075 TC 25 5 272
1977041S10076 1977 20 SI MM HERVEA 1977-02-12 12:00:00 TS -9.88189 69.5681 main 1712 1696 O________OP_O_ jtwc_sh SH171977 -9.90000 69.6000 -1 -9.90000 69.6000 TC 25 -9.82757 69.5723 1 -9.90000 69.5000 TC 25 6 278
1977041S10076 1977 20 SI MM HERVEA 1977-02-12 15:00:00 TS -9.82445 69.2872 main 1696 1673 P________PP_P_ SH171977 -9.83499 69.3074 -1 -9.83499 69.3074 TC 25 -9.80036 69.2839 1 -9.82745 69.2499 TC 25 6 278
1977041S10076 1977 20 SI MM HERVEA 1977-02-12 18:00:00 TS -9.80000 69.0000 main 1673 1641 O________OO_O_ jtwc_sh SH171977 -9.80000 69.0000 -1 -9.80000 69.0000 TC 25 -9.80000 69.0000 1 -9.80000 69.0000 TC 25 6 263
1977041S10076 1977 20 SI MM HERVEA 1977-02-12 21:00:00 TS -9.90190 68.6903 main 1641 1610 P________PP_P_ SH171977 -9.88501 68.6851 -1 -9.88501 68.6851 TC 25 -9.89507 68.6984 1 -9.94253 68.6926 TC 25 6 249
1977041S10076 1977 20 SI MM HERVEA 1977-02-13 00:00:00 TS -10.0275 68.4026 main 1610 1587 O________OP_O_ jtwc_sh SH171977 -10.0000 68.4000 -1 -10.0000 68.4000 TC 25 -10.0101 68.4103 1 -10.1000 68.4000 TC 25 6 248
1977041S10076 1977 20 SI MM HERVEA 1977-02-13 03:00:00 TS -10.1113 68.1580 main 1587 1572 P________PP_P_ SH171977 -10.0950 68.1550 -1 -10.0950 68.1550 TC 25 -10.0951 68.1670 1 -10.1600 68.1550 TC 25 4 260
1977041S10076 1977 20 SI MM HERVEA 1977-02-13 06:00:00 TS -10.1000 68.0000 main 1572 1572 O________OO_O_ jtwc_sh SH171977 -10.1000 68.0000 -1 -10.1000 68.0000 TC 25 -10.1000 68.0000 1 -10.1000 68.0000 TC 25 3 312
1977041S10076 1977 20 SI MM HERVEA 1977-02-13 09:00:00 TS -9.93074 67.9584 main 1588 1588 P________PP_P_ SH171977 -9.94498 67.9625 -1 -9.94498 67.9625 TC 25 -9.95302 67.9459 1 -9.87998 67.9625 TC 25 4 0
1977041S10076 1977 20 SI MM HERVEA 1977-02-13 12:00:00 TS -9.68122 67.9919 main 1605 1605 O________OP_O_ jtwc_sh SH171977 -9.70000 68.0000 -1 -9.70000 68.0000 TC 25 -9.72489 67.9676 1 -9.60000 68.0000 TC 25 5 9
1977041S10076 1977 20 SI MM HERVEA 1977-02-13 15:00:00 TS -9.43608 68.0395 main 1630 1630 P________PP_P_ SH171977 -9.45000 68.0425 -1 -9.45000 68.0425 TC 25 -9.45932 68.0304 1 -9.38500 68.0425 TC 27 5 12
1977041S10076 1977 20 SI MM HERVEA 1977-02-13 18:00:00 TS -9.20000 68.1000 main 1654 1654 O________OO_O_ jtwc_sh SH171977 -9.20000 68.1000 -1 -9.20000 68.1000 TC 25 -9.20000 68.1000 1 -9.20000 68.1000 TC 30 5 16
1977041S10076 1977 20 SI MM HERVEA 1977-02-13 21:00:00 TS -9.00560 68.1646 main 1678 1678 P________PP_P_ SH171977 -8.98500 68.1575 -1 -8.98500 68.1575 TC 25 -9.00240 68.1861 1 -9.05000 68.1575 TC 30 4 16
1977041S10076 1977 20 SI MM HERVEA 1977-02-14 00:00:00 TS -8.82995 68.2157 main 1695 1695 O________OP_O_ jtwc_sh SH171977 -8.80000 68.2000 -1 -8.80000 68.2000 TC 25 -8.81981 68.2627 1 -8.90000 68.2000 TC 30 4 15
1977041S10076 1977 20 SI MM HERVEA 1977-02-14 03:00:00 TS -8.66305 68.2583 main 1711 1711 P________PP_P_ SH171977 -8.64246 68.2525 -1 -8.64246 68.2525 TC 25 -8.65231 68.2830 1 -8.71497 68.2451 TC 30 3 355
1977041S10076 1977 20 SI MM HERVEA 1977-02-14 06:00:00 TS -8.50000 68.2000 main 1721 1721 O________OO_O_ jtwc_sh SH171977 -8.50000 68.2000 -1 -8.50000 68.2000 TC 25 -8.50000 68.2000 1 -8.50000 68.2000 TC 30 5 322
1977041S10076 1977 20 SI MM HERVEA 1977-02-14 09:00:00 TS -8.30628 67.9737 main 1724 1712 P________PP_P_ SH171977 -8.34250 67.9600 -1 -8.34250 67.9600 TC 25 -8.32017 67.9574 1 -8.21996 68.0174 TC 30 7 302
1977041S10076 1977 20 SI MM HERVEA 1977-02-14 12:00:00 TS -8.14006 67.6280 main 1714 1694 O________OP_O_ jtwc_sh SH171977 -8.20000 67.6000 -1 -8.20000 67.6000 TC 25 -8.16024 67.6120 1 -8.00000 67.7000 TC 30 8 291
1977041S10076 1977 20 SI MM HERVEA 1977-02-14 15:00:00 TS -8.02757 67.2226 main 1697 1671 P________PP_P_ SH171977 -8.06252 67.2074 -1 -8.06252 67.2074 TC 25 -8.04516 67.2105 1 -7.94008 67.2650 TC 30 8 280
1977041S10076 1977 20 SI MM HERVEA 1977-02-14 18:00:00 TS -8.00000 66.8000 main 1671 1643 O________OO_O_ jtwc_sh SH171977 -8.00000 66.8000 -1 -8.00000 66.8000 TC 25 -8.00000 66.8000 1 -8.00000 66.8000 TC 30 8 266
1977041S10076 1977 20 SI MM HERVEA 1977-02-14 21:00:00 TS -8.08130 66.4345 main 1637 1610 P________PP_P_ SH171977 -8.06245 66.4425 -1 -8.06245 66.4425 TC 25 -8.06538 66.4179 1 -8.13493 66.4351 TC 30 7 252
1977041S10076 1977 20 SI MM HERVEA 1977-02-15 00:00:00 TS -8.22441 66.0851 main 1610 1567 O________OP_O_ jtwc_sh SH171977 -8.20000 66.1000 -1 -8.20000 66.1000 TC 25 -8.19763 66.0405 1 -8.30000 66.1000 TC 30 8 248
1977041S10076 1977 20 SI MM HERVEA 1977-02-15 03:00:00 TS -8.37153 65.7170 main 1567 1540 P________PP_P_ SH171977 -8.35752 65.7275 -1 -8.35752 65.7275 TC 25 -8.35604 65.6928 1 -8.41503 65.7200 TC 30 7 248
1977041S10076 1977 20 SI MM HERVEA 1977-02-15 06:00:00 TS -8.50000 65.4000 main 1540 1519 O________OO_O_ jtwc_sh SH171977 -8.50000 65.4000 -1 -8.50000 65.4000 TC 25 -8.50000 65.4000 1 -8.50000 65.4000 TC 30 6 250
1977041S10076 1977 20 SI MM HERVEA 1977-02-15 09:00:00 TS -8.55961 65.1823 main 1519 1507 P________PP_P_ SH171977 -8.56496 65.1625 -1 -8.56496 65.1625 TC 25 -8.55108 65.1842 1 -8.55744 65.2200 TC 30 4 255
1977041S10076 1977 20 SI MM HERVEA 1977-02-15 12:00:00 TS -8.59620 65.0312 main 1507 1502 O________OP_O_ jtwc_sh SH171977 -8.60000 65.0000 -1 -8.60000 65.0000 TC 25 -8.58480 65.0248 1 -8.60000 65.1000 TC 30 3 255
1977041S10076 1977 20 SI MM HERVEA 1977-02-15 15:00:00 TS -8.62713 64.9188 main 1502 1487 P________PP_P_ SH171977 -8.62746 64.9074 -1 -8.62746 64.9074 TC 25 -8.62613 64.9030 1 -8.62748 64.9575 TC 30 3 245
1977041S10076 1977 20 SI MM HERVEA 1977-02-15 18:00:00 TS -8.70000 64.8000 main 1487 1456 O________OO_O_ jtwc_sh SH171977 -8.70000 64.8000 -1 -8.70000 64.8000 TC 25 -8.70000 64.8000 1 -8.70000 64.8000 TC 30 4 234
1977041S10076 1977 20 SI MM HERVEA 1977-02-15 21:00:00 TS -8.88369 64.5603 main 1456 1426 P________PP_P_ SH171977 -8.88507 64.5276 -1 -8.88507 64.5276 TC 25 -8.87959 64.6086 1 -8.88503 64.5776 TC 30 6 228
1977041S10076 1977 20 SI MM HERVEA 1977-02-16 00:00:00 TS -9.09682 64.3607 main 1426 1401 O________OP_O_ jtwc_sh SH171977 -9.10000 64.3000 -1 -9.10000 64.3000 TC 25 -9.08729 64.4426 1 -9.10000 64.4000 TC 30 5 213
1977041S10076 1977 20 SI MM HERVEA 1977-02-16 03:00:00 TS -9.28277 64.2982 main 1401 1391 P________PP_P_ SH171977 -9.28741 64.2599 -1 -9.28741 64.2599 TC 25 -9.27634 64.3554 1 -9.27992 64.3175 TC 30 3 172
1977041S10076 1977 20 SI MM HERVEA 1977-02-16 06:00:00 TS -9.40000 64.4000 main 1397 1397 O________OO_O_ jtwc_sh SH171977 -9.40000 64.4000 -1 -9.40000 64.4000 TC 25 -9.40000 64.4000 1 -9.40000 64.4000 TC 30 4 108
1977041S10076 1977 20 SI MM HERVEA 1977-02-16 09:00:00 TS -9.40633 64.6809 main 1414 1414 P________PP_P_ SH171977 -9.38753 64.6975 -1 -9.38753 64.6975 TC 25 -9.40521 64.6385 1 -9.44504 64.6899 TC 30 7 84
1977041S10076 1977 20 SI MM HERVEA 1977-02-16 12:00:00 TS -9.33508 65.0769 main 1446 1446 O________OP_O_ jtwc_sh SH171977 -9.30000 65.1000 -1 -9.30000 65.1000 TC 25 -9.34033 65.0076 1 -9.40000 65.1000 TC 30 8 78
1977041S10076 1977 20 SI MM HERVEA 1977-02-16 15:00:00 TS -9.23318 65.4870 main 1480 1480 P________PP_P_ SH171977 -9.21500 65.5000 -1 -9.21500 65.5000 TC 25 -9.23023 65.4479 1 -9.27250 65.5001 TC 30 8 74
1977041S10076 1977 20 SI MM HERVEA 1977-02-16 18:00:00 TS -9.10000 65.9000 main 1514 1514 O________OO_O_ jtwc_sh SH171977 -9.10000 65.9000 -1 -9.10000 65.9000 TC 25 -9.10000 65.9000 1 -9.10000 65.9000 TC 30 8 70
1977041S10076 1977 20 SI MM HERVEA 1977-02-16 21:00:00 TS -8.94376 66.2807 main 1557 1557 P________PP_P_ SH171977 -8.94992 66.2500 -1 -8.94992 66.2500 TC 25 -8.93275 66.3727 1 -8.94242 66.2500 TC 30 8 68
1977041S10076 1977 20 SI MM HERVEA 1977-02-17 00:00:00 TS -8.79008 66.6576 main 1592 1592 O________OP_O_ jtwc_sh SH171977 -8.80000 66.6000 -1 -8.80000 66.6000 TC 25 -8.76031 66.8302 1 -8.80000 66.6000 TC 30 9 70
1977041S10076 1977 20 SI MM HERVEA 1977-02-17 03:00:00 TS -8.64387 67.0963 main 1636 1636 P________PP_P_ SH171977 -8.64761 67.0600 -1 -8.64761 67.0600 TC 25 -8.63266 67.1976 1 -8.64761 67.0675 TC 32 8 72
1977041S10076 1977 20 SI MM HERVEA 1977-02-17 06:00:00 TS -8.53529 67.4471 reunion main 1665 1663 O____O___OO_O_ jtwc_sh SH171977 -8.60000 67.4000 -1 -7.50000 68.2000 3 9.90000 -8.60000 67.4000 TC 25 -8.60000 67.4000 1 -8.60000 67.4000 TC 35 4 90
1977041S10076 1977 20 SI MM HERVEA 1977-02-17 09:00:00 TS -8.64504 67.4700 main 1663 1623 P____P___PP_P_ SH171977 -8.74736 67.4699 -1 -7.84012 67.8227 3 -8.74736 67.4699 TC 25 -8.74049 67.3517 1 -8.74739 67.4124 TC 35 4 207
1977041S10076 1977 20 SI MM HERVEA 1977-02-17 12:00:00 TS -8.86841 67.2764 reunion main 1623 1585 O____O___OP_O_ jtwc_sh SH171977 -9.00000 67.3000 -1 -8.20000 67.5000 99 9.90000 -9.00000 67.3000 TC 25 -8.97495 67.1378 1 -9.00000 67.2000 TC 35 7 226
1977041S10076 1977 20 SI MM HERVEA 1977-02-17 15:00:00 TS -9.12544 66.9641 main 1585 1532 P____P___PP_P_ SH171977 -9.26514 66.9302 -1 -8.59240 67.2573 99 -9.26514 66.9302 TC 25 -9.24690 66.8299 1 -9.25759 66.8726 TC 35 9 232
1977041S10076 1977 20 SI MM HERVEA 1977-02-17 18:00:00 TS -9.40000 66.6000 reunion main 1532 1494 O____O___OO_O_ jtwc_sh SH171977 -9.50000 66.5000 -1 -9.00000 67.0000 99 9.90000 -9.50000 66.5000 TC 25 -9.50000 66.5000 1 -9.50000 66.5000 TC 35 8 233
1977041S10076 1977 20 SI MM HERVEA 1977-02-17 21:00:00 TS -9.59717 66.3180 main 1494 1472 P____P___PP_P_ SH171977 -9.61492 66.2274 -1 -9.43004 66.6151 99 -9.61492 66.2274 TC 25 -9.65354 66.2854 1 -9.67244 66.2349 TC 35 6 237
1977041S10076 1977 20 SI MM HERVEA 1977-02-18 00:00:00 TS -9.75593 66.0519 reunion main 1463 1434 O____O___OP_O_ jtwc_sh SH171977 -9.70000 66.0000 -1 -9.80000 66.2000 99 9.90000 -9.70000 66.0000 TC 25 -9.77966 66.0597 1 -9.80000 66.0000 TC 35 6 239
1977041S10076 1977 20 SI MM HERVEA 1977-02-18 03:00:00 TS -9.90110 65.8002 main 1434 1406 P____P___PP_P_ SH171977 -9.84992 65.7725 -1 -10.0148 65.8797 99 -9.84992 65.7725 TC 30 -9.89097 65.8041 1 -9.89992 65.7724 TC 35 6 242
1977041S10076 1977 20 SI MM HERVEA 1977-02-18 06:00:00 TS -10.0400 65.5000 reunion main 1406 1362 O____O___OO_O_ jtwc_sh SH171977 -10.0000 65.5000 -1 -10.2000 65.5000 3 9.90000 -10.0000 65.5000 TC 35 -10.0000 65.5000 2 -10.0000 65.5000 TC 35 8 247
1977041S10076 1977 20 SI MM HERVEA 1977-02-18 09:00:00 TS -10.1980 65.0915 main 1362 1328 P____P___PP_P_ SH171977 -10.1000 65.1299 -1 -10.5151 64.9302 3 -10.1000 65.1299 TC 35 -10.1250 65.1374 2 -10.1500 65.1300 TC 37 9 250
1977041S10076 1977 20 SI MM HERVEA 1977-02-18 12:00:00 TS -10.3500 64.6250 reunion main 1322 1280 O____O___OP_O_ jtwc_sh SH171977 -10.2000 64.7000 -1 -10.8000 64.3000 99 9.90000 -10.2000 64.7000 TC 35 -10.2499 64.7249 2 -10.3000 64.7000 TC 40 10 253
1977041S10076 1977 20 SI MM HERVEA 1977-02-18 15:00:00 TS -10.4824 64.1579 main 1280 1242 P____P___PP_P_ SH171977 -10.3500 64.2575 -1 -10.9374 63.7348 99 -10.3500 64.2575 TC 35 -10.3749 64.2749 2 -10.3999 64.2649 TC 42 10 255
1977041S10076 1977 20 SI MM HERVEA 1977-02-18 18:00:00 TS -10.6000 63.6800 reunion main 1242 1205 O____O___OO_O_ jtwc_sh SH171977 -10.5000 63.8000 -1 -11.0000 63.2000 99 9.90000 -10.5000 63.8000 TC 35 -10.5000 63.8000 2 -10.5000 63.8000 TC 45 10 257
1977041S10076 1977 20 SI MM HERVEA 1977-02-18 21:00:00 TS -10.7039 63.2183 main 1205 1175 P____P___PP_P_ SH171977 -10.5999 63.3649 -1 -11.0574 62.6924 99 -10.5999 63.3649 TC 35 -10.6122 63.3617 2 -10.6500 63.3075 TC 47 9 257
1977041S10076 1977 20 SI MM HERVEA 1977-02-19 00:00:00 TS -10.8053 62.7393 reunion main 1170 1141 O____O___OP_O_ jtwc_sh SH171977 -10.7000 62.9000 -1 -11.1000 62.2000 99 9.90000 -10.7000 62.9000 TC 35 -10.7265 62.8967 2 -10.8000 62.8000 TC 50 10 258
1977041S10076 1977 20 SI MM HERVEA 1977-02-19 03:00:00 TS -10.9084 62.2406 main 1136 1104 P____P___PP_P_ SH171977 -10.8348 62.3874 -1 -11.1274 61.7074 99 -10.8348 62.3874 TC 35 -10.8526 62.3834 2 -10.8922 62.3373 TC 55 11 257
1977041S10076 1977 20 SI MM HERVEA 1977-02-19 06:00:00 TS -11.0400 61.6800 reunion main 1104 1060 O____O___OO_O_ jtwc_sh SH171977 -11.0000 61.8000 -1 -11.2000 61.2000 3 9.90000 -11.0000 61.8000 TC 35 -11.0000 61.8000 2 -11.0000 61.8000 TC 60 12 255
1977041S10076 1977 20 SI MM HERVEA 1977-02-19 09:00:00 TS -11.2272 61.0293 main 1056 1015 P____P___PP_P_ SH171977 -11.1924 61.1374 -1 -11.4000 60.6502 3 -11.1924 61.1374 TC 35 -11.1662 61.1337 2 -11.1851 61.0875 TC 62 14 254
1977041S10076 1977 20 SI MM HERVEA 1977-02-19 12:00:00 TS -11.4310 60.3194 reunion main 1012 972 O____O___OP_O_ jtwc_sh SH171977 -11.4000 60.4000 -1 -11.6000 60.1000 99 9.90000 -11.4000 60.4000 TC 35 -11.3549 60.3968 2 -11.4000 60.3000 TC 65 14 255
1977041S10076 1977 20 SI MM HERVEA 1977-02-19 15:00:00 TS -11.6015 59.6056 main 972 937 P____P___PP_P_ SH171977 -11.5848 59.6297 -1 -11.6799 59.5924 99 -11.5848 59.6297 TC 35 -11.5661 59.6116 2 -11.5922 59.5648 TC 67 15 256
1977041S10076 1977 20 SI MM HERVEA 1977-02-19 18:00:00 TS -11.7800 58.8600 reunion main 937 890 O____O___OO_O_ jtwc_sh SH171977 -11.8000 58.8000 -1 -11.7000 59.1000 99 9.90000 -11.8000 58.8000 TC 35 -11.8000 58.8000 2 -11.8000 58.8000 TC 70 16 255
1977041S10076 1977 20 SI MM HERVEA 1977-02-19 21:00:00 TS -12.0014 58.0501 main 890 800 P____P___PP_P_ SH171977 -12.0926 57.8926 -1 -11.6999 58.6074 99 -12.0926 57.8926 TC 35 -12.0871 57.9004 2 -12.0349 57.9574 TC 70 17 254
1977041S10076 1977 20 SI MM HERVEA 1977-02-20 00:00:00 TS -12.2379 57.2389 reunion main 790 708 O____O___OP_O_ jtwc_sh SH171977 -12.4000 57.0000 -1 -11.7000 58.1000 99 9.90000 -12.4000 57.0000 TC 35 -12.3893 56.9944 2 -12.3000 57.1000 TC 70 16 253
1977041S10076 1977 20 SI MM HERVEA 1977-02-20 03:00:00 TS -12.4824 56.4418 main 697 629 P____P___PP_P_ SH171977 -12.6801 56.1526 -1 -11.7501 57.5351 99 -12.6801 56.1526 TC 35 -12.6716 56.1659 2 -12.6303 56.2029 TC 70 15 253
1977041S10076 1977 20 SI MM HERVEA 1977-02-20 06:00:00 TS -12.6800 55.8000 reunion main 629 595 O____O___OO_O_ jtwc_sh SH171977 -12.9000 55.5000 -1 -11.8000 57.0000 3 9.90000 -12.9000 55.5000 TC 35 -12.9000 55.5000 2 -12.9000 55.5000 TC 70 10 253
1977041S10076 1977 20 SI MM HERVEA 1977-02-20 09:00:00 TS -12.7722 55.4499 main 584 563 P____P___PP_P_ SH171977 -13.0296 55.1673 -1 -11.7998 56.5924 3 -13.0296 55.1673 TC 35 -13.0227 55.1056 2 -12.9795 55.2172 TC 67 6 256
1977041S10076 1977 20 SI MM HERVEA 1977-02-20 12:00:00 TS -12.8186 55.2353 reunion main 563 539 O____O___OP_O_ jtwc_sh SH171977 -13.1000 55.0000 -1 -11.8000 56.2000 99 9.90000 -13.1000 55.0000 TC 35 -13.0930 54.8764 2 -13.0000 55.1000 TC 65 5 258
1977041S10076 1977 20 SI MM HERVEA 1977-02-20 15:00:00 TS -12.8724 54.9813 main 539 508 P____P___PP_P_ SH171977 -13.1499 54.7999 -1 -11.8275 55.7149 99 -13.1499 54.7999 TC 35 -13.1420 54.7340 2 -13.0925 54.8575 TC 65 5 256
1977041S10076 1977 20 SI MM HERVEA 1977-02-20 18:00:00 TS -12.9400 54.7200 reunion main 508 473 O____O___OO_O_ jtwc_sh SH171977 -13.2000 54.6000 -1 -11.9000 55.2000 99 9.90000 -13.2000 54.6000 TC 35 -13.2000 54.6000 2 -13.2000 54.6000 TC 65 6 254
1977041S10076 1977 20 SI MM HERVEA 1977-02-20 21:00:00 TS -13.0300 54.4269 main 473 437 P____P___PP_P_ SH171977 -13.2850 54.3575 -1 -11.9975 54.6923 99 -13.2850 54.3575 TC 35 -13.2901 54.3772 2 -13.2925 54.3500 TC 65 6 249
1977041S10076 1977 20 SI MM HERVEA 1977-02-21 00:00:00 TS -13.1594 54.1289 reunion main 437 414 O____O___OP_O_ jtwc_sh SH171977 -13.4000 54.1000 -1 -12.2000 54.2000 99 9.90000 -13.4000 54.1000 TC 35 -13.3972 54.1445 2 -13.4000 54.1000 TC 65 7 242
1977041S10076 1977 20 SI MM HERVEA 1977-02-21 03:00:00 TS -13.3396 53.8394 main 404 379 P____P___PP_P_ SH171977 -13.5274 53.8649 -1 -12.5850 53.7053 99 -13.5274 53.8649 TC 35 -13.5307 53.8896 2 -13.5274 53.8724 TC 65 7 235
1977041S10076 1977 20 SI MM HERVEA 1977-02-21 06:00:00 TS -13.5600 53.5400 reunion main 368 330 O____O___OO_O_ jtwc_sh SH171977 -13.7000 53.6000 -1 -13.0000 53.3000 4 9.90000 -13.7000 53.6000 TC 35 -13.7000 53.6000 2 -13.7000 53.6000 TC 65 8 233
1977041S10076 1977 20 SI MM HERVEA 1977-02-21 09:00:00 TS -13.7984 53.2181 main 330 291 P____P___PP_P_ SH171977 -13.9350 53.2725 -1 -13.2648 53.0772 4 -13.9350 53.2725 TC 35 -13.9223 53.2531 2 -13.9351 53.2151 TC 65 8 233
1977041S10076 1977 20 SI MM HERVEA 1977-02-21 12:00:00 TS -14.0555 52.8746 reunion main 286 237 O____O___OP_O_ jtwc_sh SH171977 -14.2000 52.9000 -1 -13.5000 52.9000 99 9.90000 -14.2000 52.9000 TC 35 -14.1777 52.8729 2 -14.2000 52.8000 TC 65 9 233
1977041S10076 1977 20 SI MM HERVEA 1977-02-21 15:00:00 TS -14.3188 52.5017 main 237 194 P____P___PP_P_ SH171977 -14.4500 52.5000 -1 -13.7926 52.5926 99 -14.4500 52.5000 TC 35 -14.4442 52.4812 2 -14.4574 52.4350 TC 67 9 234
1977041S10076 1977 20 SI MM HERVEA 1977-02-21 18:00:00 TS -14.5800 52.1400 reunion main 184 156 O____O___OO_O_ jtwc_sh SH171977 -14.7000 52.1000 -1 -14.1000 52.3000 99 9.90000 -14.7000 52.1000 TC 35 -14.7000 52.1000 2 -14.7000 52.1000 TC 70 8 231
1977041S10076 1977 20 SI MM HERVEA 1977-02-21 21:00:00 TS -14.8398 51.8389 main 146 118 P____P___PP_P_ SH171977 -14.9649 51.7350 -1 -14.4148 52.1723 99 -14.9649 51.7350 TC 35 -14.9467 51.7525 2 -14.9074 51.7999 TC 70 8 229
1977041S10076 1977 20 SI MM HERVEA 1977-02-22 00:00:00 TS -15.0750 51.5440 reunion main 107 75 O____O___OP_O_ jtwc_sh SH171977 -15.2000 51.4000 -1 -14.7000 52.0000 99 9.90000 -15.2000 51.4000 TC 35 -15.1748 51.4201 2 -15.1000 51.5000 TC 70 8 235
1977041S10076 1977 20 SI MM HERVEA 1977-02-22 03:00:00 TS -15.2816 51.1976 main 75 42 P____P___PP_P_ SH171977 -15.3874 51.0925 -1 -14.9453 51.5577 99 -15.3874 51.0925 TC 35 -15.3655 51.1026 2 -15.3225 51.1426 TC 70 7 242
1977041S10076 1977 20 SI MM HERVEA 1977-02-22 06:00:00 TS -15.4200 50.8600 reunion main 42 15 O____O___OO_O_ jtwc_sh SH171977 -15.5000 50.8000 -1 -15.1000 51.1000 4 9.90000 -15.5000 50.8000 TC 35 -15.5000 50.8000 2 -15.5000 50.8000 TC 70 6 253
1977041S10076 1977 20 SI MM HERVEA 1977-02-22 09:00:00 TS -15.4632 50.5861 main 15 0 P____P___PP_P_ SH171977 -15.5225 50.4924 -1 -15.1223 50.8848 4 -15.5225 50.4924 TC 35 -15.5613 50.5184 2 -15.5874 50.5424 TC 67 5 266
1977041S10076 1977 20 SI MM HERVEA 1977-02-22 12:00:00 TS -15.4534 50.3299 reunion main 0 0 O____O___OP_O_ jtwc_sh SH171977 -15.5000 50.2000 -1 -15.1000 50.7000 99 9.90000 -15.5000 50.2000 TC 35 -15.5671 50.2495 2 -15.6000 50.3000 TC 65 5 271
1977041S10076 1977 20 SI MM HERVEA 1977-02-22 15:00:00 TS -15.4538 50.0552 main 0 0 P____P___PP_P_ SH171977 -15.5074 49.9575 -1 -15.1501 50.3651 99 -15.5074 49.9575 TC 35 -15.5394 49.9810 2 -15.5650 50.0150 TC 62 6 271
1977041S10076 1977 20 SI MM HERVEA 1977-02-22 18:00:00 TS -15.4400 49.7600 reunion main 0 0 O____O___OO_O_ jtwc_sh SH171977 -15.5000 49.7000 -1 -15.2000 50.0000 99 9.90000 -15.5000 49.7000 TC 35 -15.5000 49.7000 2 -15.5000 49.7000 TC 60 6 275
1977041S10076 1977 20 SI MM HERVEA 1977-02-22 21:00:00 TS -15.4032 49.4246 main 0 0 P____P___PP_P_ SH171977 -15.4500 49.3574 -1 -15.2075 49.6850 99 -15.4500 49.3574 TC 35 -15.4660 49.3729 2 -15.4425 49.3500 TC 55 7 277
1977041S10076 1977 20 SI MM HERVEA 1977-02-23 00:00:00 TS -15.3655 49.0869 reunion main 0 0 O____O___OP_O_ jtwc_sh SH171977 -15.4000 49.0000 -1 -15.2000 49.4000 99 9.90000 -15.4000 49.0000 TC 35 -15.4277 49.0347 2 -15.4000 49.0000 TC 50 6 275
1977041S10076 1977 20 SI MM HERVEA 1977-02-23 03:00:00 TS -15.3525 48.7818 main 0 0 P____P___PP_P_ SH171977 -15.3850 48.6850 -1 -15.2074 49.1500 99 -15.3850 48.6850 TC 35 -15.4004 48.7042 2 -15.3850 48.6850 TC 42 6 271
1977041S10076 1977 20 SI MM HERVEA 1977-02-23 06:00:00 TS -15.3600 48.5000 reunion main 0 0 O____O___OO_O_ jtwc_sh SH171977 -15.4000 48.4000 -1 -15.2000 48.9000 3 9.90000 -15.4000 48.4000 TC 35 -15.4000 48.4000 2 -15.4000 48.4000 TC 35 5 267
1977041S10076 1977 20 SI MM HERVEA 1977-02-23 09:00:00 TS -15.3825 48.2296 main 0 0 P____P___PP_P_ SH171977 -15.4350 48.1350 -1 -15.1575 48.5925 3 -15.4350 48.1350 TC 35 -15.4500 48.1505 2 -15.4350 48.1350 TC 32 5 262
1977041S10076 1977 20 SI MM HERVEA 1977-02-23 12:00:00 TS -15.4254 47.9855 reunion main 0 0 O____O___OP_O_ jtwc_sh SH171977 -15.5000 47.9000 -1 -15.1000 48.3000 99 9.90000 -15.5000 47.9000 TC 35 -15.5272 47.9277 2 -15.5000 47.9000 TC 30 4 256
1977041S10076 1977 20 SI MM HERVEA 1977-02-23 15:00:00 TS -15.4901 47.7847 main 0 0 P____P___PP_P_ SH171977 -15.5999 47.7000 -1 -15.0349 48.1075 99 -15.5999 47.7000 TC 35 -15.6157 47.7160 2 -15.5999 47.7000 TC 27 4 251
1977041S10076 1977 20 SI MM HERVEA 1977-02-23 18:00:00 TS -15.5600 47.5800 reunion main 0 0 O____O___OO_O_ jtwc_sh SH171977 -15.7000 47.5000 -1 -15.0000 47.9000 99 9.90000 -15.7000 47.5000 TC 35 -15.7000 47.5000 2 -15.7000 47.5000 TC 25 5 255
1977041S10076 1977 20 SI MM HERVEA 1977-02-23 21:00:00 TS -15.6130 47.3135 main 0 0 P____P___PP_P_ SH171977 -15.7575 47.2575 -1 -15.0351 47.5501 99 -15.7575 47.2575 TC 35 -15.7572 47.2450 2 -15.7575 47.2575 TC 22 5 259
1977041S10076 1977 20 SI MM HERVEA 1977-02-24 00:00:00 TS -15.6615 47.0370 reunion main 0 0 O____O___OP_O_ jtwc_sh SH171977 -15.8000 47.0000 -1 -15.1000 47.2000 99 9.90000 -15.8000 47.0000 TC 35 -15.8076 46.9849 2 -15.8000 47.0000 TC 20 5 260
1977041S10076 1977 20 SI MM HERVEA 1977-02-24 03:00:00 TS -15.7033 46.7845 main 0 0 P____P___PP_P_ SH171977 -15.8500 46.7350 -1 -15.1124 46.9774 99 -15.8500 46.7350 TC 35 -15.8541 46.7325 2 -15.8500 46.7425 TC 20 5 258
1977041S10076 1977 20 SI MM HERVEA 1977-02-24 06:00:00 TS -15.7600 46.5600 reunion main 0 0 O____O___OO_O_ jtwc_sh SH171977 -15.9000 46.5000 -1 -15.2000 46.8000 3 9.90000 -15.9000 46.5000 TC 35 -15.9000 46.5000 2 -15.9000 46.5000 TC 20 4 249
1977041S10076 1977 20 SI MM HERVEA 1977-02-24 09:00:00 TS -15.8599 46.3717 main 10 0 P____P___PP_P_ SH171977 -15.9499 46.3425 -1 -15.5000 46.5852 3 -15.9499 46.3425 TC 35 -15.9499 46.3034 2 -15.9500 46.2850 TC 20 4 240
1977041S10076 1977 20 SI MM HERVEA 1977-02-24 12:00:00 TS -15.9600 46.2055 reunion main 0 0 O____O___OP_O_ jtwc_sh SH171977 -16.0000 46.2000 -1 -15.8000 46.4000 99 9.90000 -16.0000 46.2000 TC 35 -15.9998 46.1274 2 -16.0000 46.1000 TC 20 4 244
1977041S10076 1977 20 SI MM HERVEA 1977-02-24 15:00:00 TS -16.0160 46.0410 main 0 0 P____P___PP_P_ SH171977 -16.0500 46.0000 -1 -15.8800 46.2924 99 -16.0500 46.0000 TC 35 -16.0499 45.9628 2 -16.0500 45.9500 TC 20 3 252
1977041S10076 1977 20 SI MM HERVEA 1977-02-24 18:00:00 TS -16.0600 45.8800 reunion main 0 0 O____O___OO_O_ jtwc_sh SH171977 -16.1000 45.8000 -1 -15.9000 46.2000 99 9.90000 -16.1000 45.8000 TC 35 -16.1000 45.8000 2 -16.1000 45.8000 TC 20 3 252
1977041S10076 1977 20 SI MM HERVEA 1977-02-24 21:00:00 TS -16.1145 45.7211 main 0 0 P____P___PP_P_ SH171977 -16.1500 45.6500 -1 -15.9850 46.0725 99 -16.1500 45.6500 TC 35 -16.1377 45.6330 2 -16.1500 45.6000 TC 20 3 250
1977041S10076 1977 20 SI MM HERVEA 1977-02-25 00:00:00 TS -16.1755 45.5530 reunion main 0 0 O____O___OP_O_ jtwc_sh SH171977 -16.2000 45.5000 -1 -16.1000 45.9000 99 9.90000 -16.2000 45.5000 TC 35 -16.1774 45.4648 2 -16.2000 45.4000 TC 20 4 250
1977041S10076 1977 20 SI MM HERVEA 1977-02-25 03:00:00 TS -16.2382 45.3638 main 0 0 P____P___PP_P_ SH171977 -16.2425 45.3075 -1 -16.2350 45.6575 99 -16.2425 45.3075 TC 35 -16.2283 45.2892 2 -16.2424 45.2575 TC 20 4 249
1977041S10076 1977 20 SI MM HERVEA 1977-02-25 06:00:00 TS -16.3200 45.1600 reunion main 0 0 O____O___OO_O_ jtwc_sh SH171977 -16.3000 45.1000 -1 -16.4000 45.4000 3 9.90000 -16.3000 45.1000 TC 35 -16.3000 45.1000 2 -16.3000 45.1000 TC 20 4 244
1977041S10076 1977 20 SI MM HERVEA 1977-02-25 09:00:00 TS -16.4323 44.9462 main 0 0 P____P___PP_P_ SH171977 -16.3850 44.9075 -1 -16.6150 45.1776 3 -16.3850 44.9075 TC 35 -16.3913 44.8813 2 -16.3850 44.8575 TC 20 5 240
1977041S10076 1977 20 SI MM HERVEA 1977-02-25 12:00:00 TS -16.5610 44.7300 reunion main 0 0 O____O___OP_O_ jtwc_sh SH171977 -16.5000 44.7000 -1 -16.8000 45.0000 99 9.90000 -16.5000 44.7000 TC 35 -16.5051 44.6500 2 -16.5000 44.6000 TC 20 5 238
1977041S10076 1977 20 SI MM HERVEA 1977-02-25 15:00:00 TS -16.6837 44.5222 main 0 0 P____P___PP_P_ SH171977 -16.6350 44.4500 -1 -16.8724 44.8999 99 -16.6350 44.4500 TC 35 -16.6413 44.4187 2 -16.6350 44.3925 TC 25 5 237
1977041S10076 1977 20 SI MM HERVEA 1977-02-25 18:00:00 TS -16.8200 44.3200 reunion main 10 0 O____O___OO_O_ jtwc_sh SH171977 -16.8000 44.2000 -1 -16.9000 44.8000 99 9.90000 -16.8000 44.2000 TC 35 -16.8000 44.2000 2 -16.8000 44.2000 TC 30 5 233
1977041S10076 1977 20 SI MM HERVEA 1977-02-25 21:00:00 TS -16.9788 44.1169 main 15 15 P____P___PP_P_ SH171977 -16.9925 43.9850 -1 -16.9425 44.6075 99 -16.9925 43.9850 TC 30 -16.9742 44.0146 2 -16.9925 43.9925 TC 37 5 228
1977041S10076 1977 20 SI MM HERVEA 1977-02-26 00:00:00 TS -17.1540 43.9285 reunion main 21 21 O____O___OP_O_ jtwc_sh SH171977 -17.2000 43.8000 -1 -17.0000 44.4000 99 9.90000 -17.2000 43.8000 TC 25 -17.1698 43.8423 2 -17.2000 43.8000 TC 45 5 223
1977041S10076 1977 20 SI MM HERVEA 1977-02-26 03:00:00 TS -17.3285 43.7792 main 24 15 P____P___PP_P_ SH171977 -17.4000 43.6499 -1 -17.0624 44.2723 99 -17.4000 43.6499 TC 25 -17.3805 43.6739 2 -17.4000 43.6499 TC 47 5 219
1977041S10076 1977 20 SI MM HERVEA 1977-02-26 06:00:00 TS -17.5200 43.6200 reunion main 31 31 O____O___OO_O_ jtwc_sh SH171977 -17.6000 43.5000 -1 -17.2000 44.1000 3 9.90000 -17.6000 43.5000 TC 25 -17.6000 43.5000 1 -17.6000 43.5000 TC 50 6 222
1977041S10076 1977 20 SI MM HERVEA 1977-02-26 09:00:00 TS -17.7344 43.3926 main 57 57 P____P___PP_P_ SH171977 -17.7925 43.3074 -1 -17.4927 43.7578 3 -17.7925 43.3074 TC 25 -17.8017 43.2829 1 -17.7925 43.3074 TC 50 6 225
1977041S10076 1977 20 SI MM HERVEA 1977-02-26 12:00:00 TS -17.9625 43.1525 reunion main 84 84 O____O___OP_O_ jtwc_sh SH171977 -18.0000 43.1000 -1 -17.8000 43.4000 99 9.90000 -18.0000 43.1000 TC 25 -18.0127 43.0627 1 -18.0000 43.1000 TC 50 6 225
1977041S10076 1977 20 SI MM HERVEA 1977-02-26 15:00:00 TS -18.1750 42.9357 main 116 116 P____P___PP_P_ SH171977 -18.2275 42.8850 -1 -17.9424 43.1623 99 -18.2275 42.8850 TC 25 -18.2423 42.8611 1 -18.2350 42.8850 TC 50 6 219
1977041S10076 1977 20 SI MM HERVEA 1977-02-26 18:00:00 TS -18.4200 42.7600 reunion main 126 126 O____O___OO_O_ jtwc_sh SH171977 -18.5000 42.7000 -1 -18.1000 43.0000 99 9.90000 -18.5000 42.7000 TC 25 -18.5000 42.7000 1 -18.5000 42.7000 TC 50 6 206
1977041S10076 1977 20 SI MM HERVEA 1977-02-26 21:00:00 TS -18.7458 42.6401 main 151 151 P____P___PP_P_ SH171977 -18.8425 42.5700 -1 -18.4424 42.8999 99 -18.8425 42.5700 TC 25 -18.8164 42.5905 1 -18.7850 42.5700 TC 52 7 195
1977041S10076 1977 20 SI MM HERVEA 1977-02-27 00:00:00 TS -19.0915 42.5650 reunion main 166 166 O____O___OP_O_ jtwc_sh SH171977 -19.2000 42.5000 -1 -18.8000 42.8000 99 9.90000 -19.2000 42.5000 TC 25 -19.1574 42.5249 1 -19.1000 42.5000 TC 55 7 191
1977041S10076 1977 20 SI MM HERVEA 1977-02-27 03:00:00 TS -19.4024 42.5058 main 181 181 P____P___PP_P_ SH171977 -19.5225 42.4774 -1 -19.0076 42.6000 99 -19.5225 42.4774 TC 25 -19.4946 42.4968 1 -19.4650 42.4774 TC 55 6 187
1977041S10076 1977 20 SI MM HERVEA 1977-02-27 06:00:00 TS -19.6800 42.4800 reunion main 189 177 O____O___OO_O_ jtwc_sh SH171977 -19.8000 42.5000 -1 -19.2000 42.4000 3 9.90000 -19.8000 42.5000 TC 25 -19.8000 42.5000 1 -19.8000 42.5000 TC 55 5 0
1977041S10076 1977 20 SI MM HERVEA 1977-02-27 09:00:00 TS -19.9184 42.4829 main 177 165 P____P___PP_P_ SH171977 -20.0150 42.5425 -1 -19.5075 42.2700 3 -20.0150 42.5425 TC 25 -20.0319 42.5171 1 -20.0225 42.5425 TC 55 4 175
1977041S10076 1977 20 SI MM HERVEA 1977-02-27 12:00:00 TS -20.1260 42.5125 reunion main 165 156 O____O___OP_O_ jtwc_sh SH171977 -20.2000 42.6000 -1 -19.8000 42.2000 99 9.90000 -20.2000 42.6000 TC 25 -20.2300 42.5624 1 -20.2000 42.6000 TC 55 4 169
1977041S10076 1977 20 SI MM HERVEA 1977-02-27 15:00:00 TS -20.3111 42.5508 main 146 137 P____P___PP_P_ SH171977 -20.4000 42.6500 -1 -19.9500 42.1775 99 -20.4000 42.6500 TC 25 -20.4131 42.6265 1 -20.3925 42.6500 TC 55 4 169
1977041S10076 1977 20 SI MM HERVEA 1977-02-27 18:00:00 TS -20.5000 42.6000 reunion main 137 121 O____O___OO_O_ jtwc_sh SH171977 -20.6000 42.7000 -1 -20.1000 42.2000 99 9.90000 -20.6000 42.7000 TC 25 -20.6000 42.7000 1 -20.6000 42.7000 TC 55 4 169
1977041S10076 1977 20 SI MM HERVEA 1977-02-27 21:00:00 TS -20.7271 42.6397 main 121 100 P____P___PP_P_ SH171977 -20.7925 42.7426 -1 -20.4075 42.2350 99 -20.7925 42.7426 TC 25 -20.7933 42.7359 1 -20.8500 42.7425 TC 55 5 169
1977041S10076 1977 20 SI MM HERVEA 1977-02-28 00:00:00 TS -20.9594 42.6967 reunion main 94 79 O____O___OP_O_ jtwc_sh SH171977 -21.0000 42.8000 -1 -20.7000 42.3000 99 9.90000 -21.0000 42.8000 TC 25 -20.9972 42.7835 1 -21.1000 42.8000 TC 55 4 163
1977041S10076 1977 20 SI MM HERVEA 1977-02-28 03:00:00 TS -21.1475 42.7720 main 79 62 P____P___PP_P_ SH171977 -21.2275 42.8776 -1 -20.7774 42.3703 99 -21.2275 42.8776 TC 30 -21.2276 42.8643 1 -21.2774 42.8702 TC 55 5 156
1977041S10076 1977 20 SI MM HERVEA 1977-02-28 06:00:00 TS -21.3800 42.9000 reunion main 62 32 O____O___OO_O_ jtwc_sh SH171977 -21.5000 43.0000 -1 -20.9000 42.5000 3 9.90000 -21.5000 43.0000 TC 35 -21.5000 43.0000 2 -21.5000 43.0000 TC 55 7 153
1977041S10076 1977 20 SI MM HERVEA 1977-02-28 09:00:00 TS -21.7292 43.0911 main 32 0 P____P___PP_P_ SH171977 -21.8274 43.1627 -1 -21.2899 42.7051 3 -21.8274 43.1627 TC 35 -21.8238 43.2053 2 -21.8775 43.2199 TC 50 9 151
1977041S10076 1977 20 SI MM HERVEA 1977-02-28 12:00:00 TS -22.1380 43.3535 reunion main 0 0 O____O___OP_O_ jtwc_sh SH171977 -22.2000 43.4000 -1 -21.8000 43.0000 99 9.90000 -22.2000 43.4000 TC 35 -22.1901 43.4676 2 -22.3000 43.5000 TC 45 10 146
1977041S10076 1977 20 SI MM HERVEA 1977-02-28 15:00:00 TS -22.5413 43.6808 main 0 0 P____P___PP_P_ SH171977 -22.5926 43.7275 -1 -22.2852 43.3924 99 -22.5926 43.7275 TC 35 -22.5862 43.7712 2 -22.6499 43.7853 TC 37 10 142
1977041S10076 1977 20 SI MM HERVEA 1977-02-28 18:00:00 TS -22.9600 44.0400 reunion main 0 0 O____O___OO_O_ jtwc_sh SH171977 -23.0000 44.1000 -1 -22.8000 43.8000 99 9.90000 -23.0000 44.1000 TC 35 -23.0000 44.1000 2 -23.0000 44.1000 TC 30 11 143
1977041S10076 1977 20 SI MM HERVEA 1977-02-28 21:00:00 TS -23.3788 44.3738 main 0 0 P____P___PP_P_ SH171977 -23.3924 44.4503 -1 -23.3423 44.1006 99 -23.3924 44.4503 TC 35 -23.3822 44.4253 2 -23.3850 44.4427 TC 27 11 144
1977041S10076 1977 20 SI MM HERVEA 1977-03-01 00:00:00 TS -23.8165 44.7143 reunion main 0 0 O____O___OP_O_ jtwc_sh SH171977 -23.8000 44.8000 -1 -23.9000 44.4000 99 9.90000 -23.8000 44.8000 TC 35 -23.7824 44.7715 2 -23.8000 44.8000 TC 25 11 144
1977041S10076 1977 20 SI MM HERVEA 1977-03-01 03:00:00 TS -24.2683 45.0736 main 0 0 P____P___PP_P_ SH171977 -24.2199 45.1504 -1 -24.4651 44.7924 99 -24.2199 45.1504 TC 35 -24.2165 45.1319 2 -24.2199 45.1430 TC 25 12 145
1977041S10076 1977 20 SI MM HERVEA 1977-03-01 06:00:00 TS -24.7600 45.4400 reunion main 0 0 O____O___OO_O_ jtwc_sh SH171977 -24.7000 45.5000 -1 -25.0000 45.2000 3 9.90000 -24.7000 45.5000 TC 35 -24.7000 45.5000 2 -24.7000 45.5000 TC 25 12 148
1977041S10076 1977 20 SI MM HERVEA 1977-03-01 09:00:00 TS -25.3155 45.8032 main 0 0 P____P___PP_P_ SH171977 -25.2774 45.8428 -1 -25.4872 45.5429 3 -25.2774 45.8428 TC 35 -25.2580 45.8874 2 -25.2775 45.9000 TC 27 13 150
1977041S10076 1977 20 SI MM HERVEA 1977-03-01 12:00:00 TS -25.8926 46.1758 reunion main 68 68 O____O___OP_O_ jtwc_sh SH171977 -25.9000 46.2000 -1 -25.9000 45.9000 99 9.90000 -25.9000 46.2000 TC 35 -25.8628 46.2790 2 -25.9000 46.3000 TC 30 13 148
1977041S10076 1977 20 SI MM HERVEA 1977-03-01 15:00:00 TS -26.4373 46.5907 main 134 134 P____P___PP_P_ SH171977 -26.5076 46.6223 -1 -26.1778 46.3803 99 -26.5076 46.6223 TC 35 -26.4862 46.6562 2 -26.5074 46.6727 TC 32 13 147
1977041S10076 1977 20 SI MM HERVEA 1977-03-01 18:00:00 TS -26.9800 46.9600 reunion main 202 202 O____O___OO_O_ jtwc_sh SH171977 -27.1000 47.0000 -1 -26.5000 46.8000 99 9.90000 -27.1000 47.0000 TC 35 -27.1000 47.0000 2 -27.1000 47.0000 TC 35 12 155
1977041S10076 1977 20 SI MM HERVEA 1977-03-01 21:00:00 TS -27.5548 47.1758 main 271 271 P____P___PP_P_ SH171977 -27.6572 47.2159 -1 -27.1071 46.9655 99 -27.6572 47.2159 TC 35 -27.6949 47.2162 2 -27.6574 47.2655 TC 35 12 163
1977041S10076 1977 20 SI MM HERVEA 1977-03-02 00:00:00 TS -28.1144 47.3615 reunion main 329 329 O____O___OP_O_ jtwc_sh SH171977 -28.2000 47.4000 -1 -27.7000 47.1000 99 9.90000 -28.2000 47.4000 TC 35 -28.2719 47.4073 2 -28.2000 47.5000 TC 35 11 161
1977041S10076 1977 20 SI MM HERVEA 1977-03-02 03:00:00 TS -28.6142 47.5941 main 387 387 P____P___PP_P_ SH171977 -28.7645 47.6332 -1 -27.9645 47.3688 99 -28.7645 47.6332 TC 35 -28.8131 47.6444 2 -28.7644 47.6910 TC 35 11 151
1977041S10076 1977 20 SI MM HERVEA 1977-03-02 06:00:00 TS -29.0800 47.9600 reunion main 451 451 O____O___OO_O_ jtwc_sh SH171977 -29.3000 48.0000 -1 -28.2000 47.8000 3 9.90000 -29.3000 48.0000 TC 35 -29.3000 48.0000 2 -29.3000 48.0000 TC 35 13 139
1977041S10076 1977 20 SI MM HERVEA 1977-03-02 09:00:00 TS -29.5613 48.5410 main 519 519 P____P___PP_P_ SH171977 -29.7951 48.5821 -1 -28.6848 48.4169 3 -29.7951 48.5821 TC 35 -29.7364 48.5494 2 -29.7951 48.5745 TC 35 15 128
1977041S10076 1977 20 SI MM HERVEA 1977-03-02 12:00:00 TS -29.9826 49.2653 reunion main 589 589 O____O___OP_O_ jtwc_sh SH171977 -30.2000 49.3000 -1 -29.2000 49.2000 99 9.90000 -30.2000 49.3000 TC 35 -30.1130 49.2264 2 -30.2000 49.3000 TC 35 15 120
1977041S10076 1977 20 SI MM HERVEA 1977-03-02 15:00:00 TS -30.3053 50.0259 main 650 650 P____P___PP_P_ SH171977 -30.4947 50.0281 -1 -29.6171 50.0547 99 -30.4947 50.0281 TC 35 -30.4328 49.9903 2 -30.4872 50.0283 TC 35 15 112
1977041S10076 1977 20 SI MM HERVEA 1977-03-02 18:00:00 TS -30.5400 50.8400 reunion main 709 709 O____O___OO_O_ jtwc_sh SH171977 -30.7000 50.8000 -1 -29.9000 51.0000 99 9.90000 -30.7000 50.8000 TC 35 -30.7000 50.8000 2 -30.7000 50.8000 TC 35 15 106
1977041S10076 1977 20 SI MM HERVEA 1977-03-02 21:00:00 TS -30.7067 51.6559 main 776 776 P____P___PP_P_ SH171977 -30.8570 51.5858 -1 -29.9871 51.9866 99 -30.8570 51.5858 TC 30 -30.9179 51.5360 2 -30.9145 51.5853 TC 32 14 104
1977041S10076 1977 20 SI MM HERVEA 1977-03-03 00:00:00 TS -30.8820 52.4764 reunion main 842 842 O____O___OP_O_ jtwc_sh SH171977 -31.0000 52.4000 -1 -30.0000 53.0000 99 9.90000 -31.0000 52.4000 TC 25 -31.0896 52.3129 2 -31.1000 52.4000 TC 30 14 105
1977041S10076 1977 20 SI MM HERVEA 1977-03-03 03:00:00 TS -31.0914 53.2853 main 910 910 P____P___PP_P_ SH171977 -31.1915 53.2129 -1 -30.0763 54.0037 99 -31.1915 53.2129 TC 25 -31.2418 53.1581 2 -31.2486 53.1985 TC 30 15 107
1977041S10076 1977 20 SI MM HERVEA 1977-03-03 06:00:00 MX -31.3294 54.1529 reunion main 987 987 O____O___OO_O_ jtwc_sh SH171977 -31.4000 54.1000 -1 -30.2000 55.0000 5 9.90000 -31.4000 54.1000 TC 25 -31.4000 54.1000 1 -31.4000 54.1000 TC 30 17 108
1977041S10076 1977 20 SI MM HERVEA 1977-03-03 09:00:00 TS -31.5933 55.1306 main 1073 1073 P________PP_P_ SH171977 -31.5988 55.0831 -1 5 -31.5988 55.0831 TC 25 -31.5831 55.1587 1 -31.5924 55.1976 TC 30 19 104
1977041S10076 1977 20 SI MM HERVEA 1977-03-03 12:00:00 TS -31.7962 56.2788 main 1163 1163 O________OP_O_ jtwc_sh SH171977 -31.8000 56.2000 -1 -31.8000 56.2000 TC 25 -31.7850 56.3151 1 -31.8000 56.4000 TC 30 21 101
1977041S10076 1977 20 SI MM HERVEA 1977-03-03 15:00:00 TS -32.0012 57.5152 main 1198 1198 P________PP_P_ SH171977 -32.0032 57.4587 -1 -32.0032 57.4587 TC 25 -31.9941 57.5393 1 -32.0043 57.6041 TC 30 22 101
1977041S10076 1977 20 SI MM HERVEA 1977-03-03 18:00:00 TS -32.2000 58.8000 main 1246 O________OO_O_ jtwc_sh SH171977 -32.2000 58.8000 -1 -32.2000 58.8000 TC 25 -32.2000 58.8000 6 -32.2000 58.8000 TC 30 22 100

IBTrACS Databaseについて

本データベースは、米国NOAAが公開する1842年以降の世界の熱帯低気圧のベストトラックデータアーカイブInternational Best Track Archive for Climate Stewardship (IBTrACS)を、ウェブで閲覧しやすい形式に変換したものです。

最終更新日:2021-12-01